createdAt,value
2023-02-09T00:00:59.593Z,106.46
2023-02-09T00:04:12.440Z,107.20
2023-02-09T00:07:25.077Z,111.64
2023-02-09T00:10:31.120Z,114.90
2023-02-09T00:13:43.445Z,112.95
2023-02-09T00:16:59.153Z,115.82
2023-02-09T00:20:07.392Z,115.99
2023-02-09T00:23:13.553Z,118.94
2023-02-09T00:26:20.299Z,123.12
2023-02-09T00:29:26.692Z,127.11
2023-02-09T00:32:37.464Z,131.06
2023-02-09T00:35:50.895Z,131.77
2023-02-09T00:38:58.624Z,133.45
2023-02-09T00:42:11.375Z,134.16
2023-02-09T00:45:18.292Z,137.70
2023-02-09T00:48:27.427Z,141.89
2023-02-09T00:51:37.364Z,143.38
2023-02-09T00:54:43.634Z,141.30
2023-02-09T00:57:51.281Z,141.44
2023-02-09T01:00:57.334Z,139.29
2023-02-09T01:04:07.041Z,135.78
2023-02-09T01:07:13.113Z,138.39
2023-02-09T01:10:20.186Z,137.76
2023-02-09T01:13:26.295Z,140.55
2023-02-09T01:16:34.444Z,140.13
2023-02-09T01:19:43.094Z,141.05
2023-02-09T01:22:49.924Z,141.63
2023-02-09T01:26:05.045Z,146.06
2023-02-09T01:29:22.306Z,150.12
2023-02-09T01:32:30.086Z,149.41
2023-02-09T01:35:43.465Z,152.39
2023-02-09T01:38:49.521Z,153.80
2023-02-09T01:42:05.049Z,155.39
2023-02-09T01:45:32.150Z,155.84
2023-02-09T01:48:42.149Z,155.62
2023-02-09T01:51:59.926Z,156.76
2023-02-09T01:55:23.755Z,159.17
2023-02-09T01:58:32.242Z,159.92
2023-02-09T02:01:46.275Z,158.51
2023-02-09T02:04:56.900Z,155.39
2023-02-09T02:08:16.122Z,156.35
2023-02-09T02:11:28.461Z,157.99
2023-02-09T02:14:39.546Z,154.44
2023-02-09T02:18:20.947Z,150.56
2023-02-09T02:22:22.598Z,154.64
2023-02-09T02:26:24.342Z,153.00
2023-02-09T02:30:11.446Z,161.30
2023-02-09T02:33:40.146Z,185.67
2023-02-09T02:37:08.849Z,180.03
2023-02-09T02:40:38.334Z,176.92
2023-02-09T02:44:00.775Z,169.48
2023-02-09T02:47:16.894Z,167.34
2023-02-09T02:50:34.340Z,168.83
2023-02-09T02:53:49.069Z,172.91
2023-02-09T02:57:04.743Z,177.21
2023-02-09T03:00:22.260Z,178.03
2023-02-09T03:03:37.366Z,173.18
2023-02-09T03:06:46.026Z,168.90
2023-02-09T03:09:54.008Z,171.49
2023-02-09T03:13:33.033Z,169.50
2023-02-09T03:16:49.184Z,170.00
2023-02-09T03:20:08.647Z,172.51
2023-02-09T03:23:34.061Z,169.77
2023-02-09T03:26:52.553Z,170.82
2023-02-09T03:30:04.870Z,172.81
2023-02-09T03:33:23.570Z,176.50
2023-02-09T03:36:39.039Z,183.13
2023-02-09T03:39:47.867Z,185.10
2023-02-09T03:42:54.779Z,184.62
2023-02-09T03:46:00.876Z,179.41
2023-02-09T03:49:07.769Z,180.63
2023-02-09T03:52:17.795Z,182.13
2023-02-09T03:55:27.688Z,183.05
2023-02-09T03:58:33.837Z,179.49
2023-02-09T04:01:41.301Z,180.90
2023-02-09T04:04:47.423Z,181.83
2023-02-09T04:07:54.639Z,182.10
2023-02-09T04:11:03.322Z,183.54
2023-02-09T04:14:11.654Z,192.91
2023-02-09T04:17:17.580Z,194.68
2023-02-09T04:20:24.293Z,188.32
2023-02-09T04:23:30.352Z,183.45
2023-02-09T04:26:39.968Z,180.69
2023-02-09T04:29:45.831Z,181.01
2023-02-09T04:32:52.619Z,184.06
2023-02-09T04:35:58.648Z,192.19
2023-02-09T04:39:05.460Z,197.91
2023-02-09T04:42:14.094Z,199.86
2023-02-09T04:45:21.052Z,207.72
2023-02-09T04:48:30.894Z,217.52
2023-02-09T04:51:37.624Z,213.62
2023-02-09T04:54:43.636Z,212.91
2023-02-09T04:58:05.643Z,211.30
2023-02-09T05:01:20.548Z,215.46
2023-02-09T05:04:27.468Z,218.60
2023-02-09T05:07:33.451Z,227.95
2023-02-09T05:10:40.310Z,235.64
2023-02-09T05:13:49.035Z,249.56
2023-02-09T05:16:55.856Z,242.89
2023-02-09T05:20:02.060Z,234.47
2023-02-09T05:23:09.240Z,231.47
2023-02-09T05:26:15.190Z,229.58
2023-02-09T05:29:24.679Z,228.50
2023-02-09T05:32:30.666Z,220.41
2023-02-09T05:35:37.732Z,211.40
2023-02-09T05:38:44.204Z,211.87
2023-02-09T05:42:03.458Z,208.91
2023-02-09T05:45:13.182Z,202.92
2023-02-09T05:48:20.368Z,192.82
2023-02-09T05:51:26.471Z,190.12
2023-02-09T05:54:33.521Z,189.61
2023-02-09T05:57:39.509Z,186.88
2023-02-09T06:00:48.876Z,185.95
2023-02-09T06:03:54.928Z,187.27
2023-02-09T06:07:02.106Z,194.58
2023-02-09T06:10:09.526Z,194.94
2023-02-09T06:13:16.340Z,199.24
2023-02-09T06:16:25.030Z,217.03
2023-02-09T06:19:31.754Z,209.60
2023-02-09T06:22:37.793Z,218.74
2023-02-09T06:25:44.767Z,225.66
2023-02-09T06:28:51.178Z,221.36
2023-02-09T06:32:00.789Z,229.19
2023-02-09T06:35:07.167Z,241.41
2023-02-09T06:38:14.960Z,261.68
2023-02-09T06:41:21.184Z,273.67
2023-02-09T06:44:27.997Z,263.13
2023-02-09T06:47:36.621Z,256.50
2023-02-09T06:50:43.895Z,251.98
2023-02-09T06:53:50.347Z,246.43
2023-02-09T06:56:57.173Z,244.20
2023-02-09T07:00:03.249Z,244.63
2023-02-09T07:03:12.854Z,221.19
2023-02-09T07:06:23.095Z,213.67
2023-02-09T07:09:30.449Z,223.46
2023-02-09T07:12:38.016Z,207.88
2023-02-09T07:15:45.933Z,211.52
2023-02-09T07:18:54.673Z,210.41
2023-02-09T07:22:01.533Z,202.01
2023-02-09T07:25:08.672Z,201.61
2023-02-09T07:28:15.472Z,195.04
2023-02-09T07:31:21.969Z,191.60
2023-02-09T07:34:31.655Z,186.65
2023-02-09T07:37:38.783Z,180.55
2023-02-09T07:40:47.313Z,178.66
2023-02-09T07:43:53.458Z,175.85
2023-02-09T07:47:00.369Z,167.50
2023-02-09T07:50:09.479Z,165.74
2023-02-09T07:53:16.245Z,159.26
2023-02-09T07:56:22.260Z,155.00
2023-02-09T07:59:29.050Z,154.63
2023-02-09T08:02:40.795Z,155.38
2023-02-09T08:06:01.354Z,151.20
2023-02-09T08:09:09.628Z,149.93
2023-02-09T08:12:16.994Z,153.67
2023-02-09T08:15:26.575Z,148.96
2023-02-09T08:18:40.536Z,139.96
2023-02-09T08:21:53.179Z,128.02
2023-02-09T08:25:04.564Z,129.71
2023-02-09T08:28:12.606Z,133.75
2023-02-09T08:31:22.445Z,133.03
2023-02-09T08:34:28.538Z,134.36
2023-02-09T08:37:37.997Z,133.23
2023-02-09T08:40:44.475Z,132.01
2023-02-09T08:43:52.732Z,134.38
2023-02-09T08:46:58.891Z,133.35
2023-02-09T08:50:05.878Z,135.98
2023-02-09T08:53:14.391Z,128.89
2023-02-09T08:56:21.508Z,128.11
2023-02-09T08:59:27.547Z,133.18
2023-02-09T09:02:34.618Z,154.54
2023-02-09T09:05:40.914Z,150.76
2023-02-09T09:08:51.820Z,141.90
2023-02-09T09:11:57.825Z,136.48
2023-02-09T09:15:05.024Z,109.99
2023-02-09T09:18:11.164Z,105.96
2023-02-09T09:21:20.959Z,106.75
2023-02-09T09:24:30.703Z,101.34
2023-02-09T09:27:38.361Z,101.57
2023-02-09T09:30:44.271Z,94.82
2023-02-09T09:33:51.141Z,85.57
2023-02-09T09:36:57.071Z,90.05
2023-02-09T09:40:07.191Z,85.59
2023-02-09T09:43:36.105Z,82.84
2023-02-09T09:46:49.782Z,82.59
2023-02-09T09:49:56.591Z,79.24
2023-02-09T09:53:15.860Z,79.09
2023-02-09T09:56:27.165Z,79.36
2023-02-09T09:59:39.576Z,77.70
2023-02-09T10:02:47.354Z,76.37
2023-02-09T10:05:57.472Z,74.98
2023-02-09T10:09:11.018Z,76.06
2023-02-09T10:12:40.811Z,76.05
2023-02-09T10:15:51.877Z,78.02
2023-02-09T10:19:02.756Z,78.31
2023-02-09T10:22:16.105Z,75.44
2023-02-09T10:25:52.251Z,72.87
2023-02-09T10:29:03.755Z,73.01
2023-02-09T10:32:21.915Z,69.31
2023-02-09T10:35:32.151Z,64.36
2023-02-09T10:38:44.159Z,65.35
2023-02-09T10:41:55.461Z,63.05
2023-02-09T10:45:22.094Z,56.92
2023-02-09T10:48:31.221Z,35.14
2023-02-09T10:51:37.984Z,25.69
2023-02-09T10:54:47.447Z,22.16
2023-02-09T10:57:54.360Z,22.09
2023-02-09T11:01:20.735Z,20.82
2023-02-09T11:04:33.050Z,18.72
2023-02-09T11:07:46.417Z,19.94
2023-02-09T11:11:09.157Z,23.56
2023-02-09T11:14:19.894Z,20.58
2023-02-09T11:17:37.916Z,19.29
2023-02-09T11:20:54.438Z,20.57
2023-02-09T11:24:18.489Z,17.30
2023-02-09T11:27:48.192Z,17.85
2023-02-09T11:31:35.047Z,17.27
2023-02-09T11:35:15.798Z,16.27
2023-02-09T11:38:40.154Z,15.35
2023-02-09T11:42:05.893Z,15.09
2023-02-09T11:45:22.048Z,16.14
2023-02-09T11:48:33.703Z,14.34
2023-02-09T11:51:49.335Z,14.65
2023-02-09T11:55:07.393Z,15.59
2023-02-09T11:58:57.585Z,14.34
2023-02-09T12:02:31.170Z,13.34
2023-02-09T12:05:39.194Z,12.23
2023-02-09T12:09:22.198Z,12.48
2023-02-09T12:12:43.362Z,12.79
2023-02-09T12:15:55.380Z,12.51
2023-02-09T12:19:09.837Z,12.85
2023-02-09T12:23:01.301Z,12.55
2023-02-09T12:26:46.866Z,14.60
2023-02-09T12:29:52.752Z,17.28
2023-02-09T12:33:22.748Z,15.82
2023-02-09T12:36:33.670Z,16.11
2023-02-09T12:39:40.636Z,13.88
2023-02-09T12:43:13.990Z,13.88
2023-02-09T12:46:27.668Z,14.07
2023-02-09T12:49:38.339Z,14.61
2023-02-09T12:53:34.970Z,18.83
2023-02-09T12:56:41.073Z,16.26
2023-02-09T13:00:34.896Z,14.78
2023-02-09T13:03:56.641Z,15.82
2023-02-09T13:07:15.684Z,14.94
2023-02-09T13:10:33.810Z,13.01
2023-02-09T13:13:56.358Z,13.47
2023-02-09T13:17:40.689Z,14.71
2023-02-09T13:21:19.161Z,15.38
2023-02-09T13:24:38.312Z,14.77
2023-02-09T13:27:53.983Z,13.72
2023-02-09T13:31:00.188Z,14.58
2023-02-09T13:34:33.085Z,14.20
2023-02-09T13:37:50.210Z,16.09
2023-02-09T13:40:58.561Z,14.53
2023-02-09T13:44:04.901Z,13.82
2023-02-09T13:47:18.966Z,14.00
2023-02-09T13:50:30.749Z,16.02
2023-02-09T13:53:37.654Z,15.81
2023-02-09T13:56:45.241Z,14.19
2023-02-09T13:59:52.740Z,14.21
2023-02-09T14:03:12.607Z,13.89
2023-02-09T14:06:35.200Z,13.01
2023-02-09T14:09:58.453Z,16.08
2023-02-09T14:13:18.560Z,15.95
2023-02-09T14:16:31.981Z,17.02
2023-02-09T14:19:39.998Z,18.06
2023-02-09T14:23:09.701Z,17.84
2023-02-09T14:26:28.324Z,16.63
2023-02-09T14:29:39.341Z,17.18
2023-02-09T14:32:48.665Z,16.36
2023-02-09T14:36:01.383Z,17.07
2023-02-09T14:39:17.004Z,17.32
2023-02-09T14:42:23.176Z,17.37
2023-02-09T14:45:43.537Z,18.19
2023-02-09T14:48:49.724Z,17.99
2023-02-09T14:52:10.576Z,18.90
2023-02-09T14:55:28.145Z,20.75
2023-02-09T14:58:43.561Z,23.57
2023-02-09T15:01:56.141Z,24.14
2023-02-09T15:05:07.436Z,25.75
2023-02-09T15:08:26.407Z,24.30
2023-02-09T15:11:48.641Z,25.76
2023-02-09T15:14:59.950Z,29.63
2023-02-09T15:18:07.347Z,31.13
2023-02-09T15:21:13.339Z,29.50
2023-02-09T15:24:24.339Z,32.75
2023-02-09T15:27:42.386Z,51.72
2023-02-09T15:30:55.622Z,46.00
2023-02-09T15:34:01.667Z,35.02
2023-02-09T15:37:08.554Z,28.01
2023-02-09T15:40:52.815Z,31.93
2023-02-09T15:44:20.182Z,35.31
2023-02-09T15:47:44.503Z,44.72
2023-02-09T15:50:51.793Z,55.21
2023-02-09T15:54:08.721Z,61.86
2023-02-09T15:57:18.702Z,63.29
2023-02-09T16:00:31.101Z,63.75
2023-02-09T16:03:38.198Z,64.00
2023-02-09T16:06:52.243Z,71.59
2023-02-09T16:09:59.466Z,58.50
2023-02-09T16:13:07.973Z,51.59
2023-02-09T16:16:17.987Z,54.75
2023-02-09T16:19:24.242Z,65.76
2023-02-09T16:22:35.504Z,66.22
2023-02-09T16:25:41.560Z,58.30
2023-02-09T16:28:49.317Z,58.91
2023-02-09T16:31:58.005Z,62.85
2023-02-09T16:35:16.188Z,67.70
2023-02-09T16:38:33.982Z,63.23
2023-02-09T16:41:57.086Z,62.50
2023-02-09T16:45:04.930Z,62.34
2023-02-09T16:48:26.324Z,63.49
2023-02-09T16:51:32.574Z,69.79
2023-02-09T16:54:49.850Z,69.20
2023-02-09T16:57:58.081Z,63.23
2023-02-09T17:01:11.542Z,58.91
2023-02-09T17:04:21.719Z,52.09
2023-02-09T17:07:52.259Z,48.32
2023-02-09T17:11:00.841Z,48.04
2023-02-09T17:14:08.128Z,44.63
2023-02-09T17:17:25.066Z,47.83
2023-02-09T17:20:43.921Z,59.10
2023-02-09T17:23:50.475Z,63.67
2023-02-09T17:26:57.324Z,66.23
2023-02-09T17:30:04.330Z,62.61
2023-02-09T17:33:26.756Z,59.17
2023-02-09T17:36:35.682Z,53.88
2023-02-09T17:39:42.851Z,50.40
2023-02-09T17:42:52.411Z,48.01
2023-02-09T17:46:00.110Z,45.86
2023-02-09T17:49:06.684Z,45.90
2023-02-09T17:52:20.402Z,43.59
2023-02-09T17:55:31.786Z,45.77
2023-02-09T17:58:38.995Z,51.89
2023-02-09T18:01:49.789Z,51.03
2023-02-09T18:04:56.674Z,50.24
2023-02-09T18:08:05.361Z,51.37
2023-02-09T18:11:17.147Z,50.21
2023-02-09T18:14:26.022Z,50.82
2023-02-09T18:17:33.063Z,49.16
2023-02-09T18:20:39.886Z,46.90
2023-02-09T18:23:50.055Z,47.12
2023-02-09T18:26:56.581Z,51.70
2023-02-09T18:30:03.464Z,48.64
2023-02-09T18:33:11.108Z,47.80
2023-02-09T18:36:19.022Z,47.48
2023-02-09T18:39:27.788Z,47.88
2023-02-09T18:42:34.663Z,49.77
2023-02-09T18:45:41.061Z,50.30
2023-02-09T18:48:47.786Z,49.16
2023-02-09T18:51:53.845Z,49.99
2023-02-09T18:55:03.977Z,53.85
2023-02-09T18:58:11.346Z,57.20
2023-02-09T19:01:19.072Z,59.61
2023-02-09T19:04:25.460Z,62.18
2023-02-09T19:07:33.495Z,59.35
2023-02-09T19:10:48.524Z,64.15
2023-02-09T19:14:10.840Z,68.49
2023-02-09T19:17:21.771Z,60.49
2023-02-09T19:20:35.617Z,54.71
2023-02-09T19:23:42.382Z,60.11
2023-02-09T19:26:52.140Z,57.28
2023-02-09T19:30:01.978Z,56.44
2023-02-09T19:33:08.910Z,56.24
2023-02-09T19:36:15.484Z,51.90
2023-02-09T19:39:22.616Z,50.27
2023-02-09T19:42:31.376Z,45.55
2023-02-09T19:45:43.621Z,45.59
2023-02-09T19:48:56.740Z,43.97
2023-02-09T19:52:08.245Z,43.92
2023-02-09T19:55:17.227Z,40.05
2023-02-09T19:58:41.941Z,42.84
2023-02-09T20:01:56.118Z,42.39
2023-02-09T20:05:09.047Z,42.79
2023-02-09T20:08:21.672Z,44.30
2023-02-09T20:11:28.562Z,49.22
2023-02-09T20:14:38.515Z,57.84
2023-02-09T20:21:18.037Z,61.54
2023-02-09T20:24:25.096Z,65.07
2023-02-09T20:27:31.095Z,60.80
2023-02-09T20:30:46.872Z,53.76
2023-02-09T20:33:58.091Z,55.99
2023-02-09T20:37:09.173Z,51.32
2023-02-09T20:40:34.730Z,51.16
2023-02-09T20:44:22.676Z,46.22
2023-02-09T20:47:32.713Z,48.12
2023-02-09T20:50:40.602Z,51.09
2023-02-09T20:53:49.361Z,46.92
2023-02-09T20:56:56.415Z,42.28
2023-02-09T21:00:08.039Z,42.96
2023-02-09T21:03:17.636Z,41.70
2023-02-09T21:06:25.273Z,43.59
2023-02-09T21:09:32.221Z,45.93
2023-02-09T21:12:38.229Z,52.72
2023-02-09T21:15:51.440Z,54.81
2023-02-09T21:19:00.243Z,49.13
2023-02-09T21:22:07.423Z,55.23
2023-02-09T21:25:16.724Z,51.77
2023-02-09T21:28:23.569Z,50.52
2023-02-09T21:31:42.731Z,49.02
2023-02-09T21:34:52.418Z,47.67
2023-02-09T21:37:58.447Z,42.65
2023-02-09T21:41:09.043Z,40.13
2023-02-09T21:44:15.439Z,38.14
2023-02-09T21:47:22.521Z,37.30
2023-02-09T21:50:31.369Z,38.89
2023-02-09T21:53:41.774Z,41.83
2023-02-09T21:56:48.321Z,47.36
2023-02-09T21:59:55.548Z,48.08
2023-02-09T22:03:01.789Z,52.45
2023-02-09T22:06:16.927Z,52.11
2023-02-09T22:09:24.962Z,56.83
2023-02-09T22:12:32.078Z,58.71
2023-02-09T22:15:37.979Z,56.69
2023-02-09T22:18:53.334Z,58.11
2023-02-09T22:22:08.549Z,62.71
2023-02-09T22:25:15.699Z,56.60
2023-02-09T22:28:21.639Z,52.94
2023-02-09T22:31:28.560Z,47.27
2023-02-09T22:34:34.545Z,45.86
2023-02-09T22:37:51.658Z,48.69
2023-02-09T22:40:57.649Z,56.56
2023-02-09T22:44:21.737Z,61.79
2023-02-09T22:47:33.759Z,64.09
2023-02-09T22:50:42.008Z,59.68
2023-02-09T22:53:52.791Z,61.53
2023-02-09T22:56:59.657Z,61.51
2023-02-09T23:00:30.742Z,57.65
2023-02-09T23:03:44.145Z,58.52
2023-02-09T23:06:50.613Z,55.17
2023-02-09T23:10:03.243Z,56.80
2023-02-09T23:13:09.825Z,57.60
2023-02-09T23:16:20.702Z,60.26
2023-02-09T23:19:27.734Z,54.95
2023-02-09T23:22:34.551Z,48.69
2023-02-09T23:25:43.059Z,48.65
2023-02-09T23:28:51.183Z,52.52
2023-02-09T23:31:58.439Z,50.72
2023-02-09T23:35:08.145Z,47.15
2023-02-09T23:38:14.101Z,49.25
2023-02-09T23:41:31.325Z,52.87
2023-02-09T23:44:37.391Z,51.29
2023-02-09T23:47:44.290Z,46.11
2023-02-09T23:50:52.389Z,46.27
2023-02-09T23:54:01.622Z,46.30
2023-02-09T23:57:23.558Z,46.36
